Time;durP1;ratioP1;P1;durP2;ratioP2;P2;SDS_P1;SDS_P2;PMS_P1;PMS_P2;Temp;Humidity;BMP_temperature;BMP_pressure;BME280_temperature;BME280_humidity;BME280_pressure;Samples;Min_cycle;Max_cycle;Signal;HPM_P1;HPM_P2
2021/11/16 00:00:40;;;;;;;92.90;41.20;;;;;;;11.65;52.46;102340.28;5002406;28;98706;-88
2021/11/16 00:03:10;;;;;;;97.25;42.50;;;;;;;11.71;52.33;102340.19;5021301;28;97830;-88
2021/11/16 00:05:39;;;;;;;89.05;40.42;;;;;;;11.95;51.78;102339.84;5022271;28;96775;-88
2021/11/16 00:08:07;;;;;;;90.35;39.03;;;;;;;11.72;51.48;102331.34;5010042;28;96855;-87
2021/11/16 00:10:37;;;;;;;96.68;41.97;;;;;;;11.46;52.18;102329.97;5022918;28;99144;-86
2021/11/16 00:13:10;;;;;;;91.65;40.60;;;;;;;11.15;53.49;102328.63;5028016;28;98987;-86
2021/11/16 00:15:37;;;;;;;88.00;40.00;;;;;;;10.95;54.67;102325.34;5021931;28;96533;-87
2021/11/16 00:18:05;;;;;;;91.35;40.80;;;;;;;11.49;53.43;102334.31;5025129;28;96699;-87
2021/11/16 00:20:34;;;;;;;94.45;40.97;;;;;;;11.55;52.88;102340.41;5014381;28;99609;-87
2021/11/16 00:23:01;;;;;;;83.90;40.08;;;;;;;11.59;51.89;102341.25;5033067;28;100392;-88
2021/11/16 00:25:34;;;;;;;88.95;41.10;;;;;;;11.81;52.14;102348.03;5034592;28;95969;-87
2021/11/16 00:28:02;;;;;;;88.53;41.42;;;;;;;11.69;52.17;102340.22;5029914;28;95991;-88
2021/11/16 00:30:29;;;;;;;93.70;42.17;;;;;;;11.70;52.22;102349.03;5031232;28;97159;-86
2021/11/16 00:32:56;;;;;;;95.82;42.13;;;;;;;11.61;52.26;102343.88;5022873;28;96976;-86
2021/11/16 00:35:23;;;;;;;99.00;43.15;;;;;;;11.58;52.62;102339.50;5039147;28;96342;-87
2021/11/16 00:37:49;;;;;;;91.28;41.10;;;;;;;11.78;52.11;102347.19;5039715;28;96729;-88
2021/11/16 00:40:19;;;;;;;96.10;42.92;;;;;;;11.94;51.87;102349.59;4997629;28;98754;-88
2021/11/16 00:42:49;;;;;;;92.78;42.83;;;;;;;11.87;51.66;102345.28;5001974;28;99052;-87
2021/11/16 00:45:17;;;;;;;98.55;42.22;;;;;;;12.19;50.91;102343.88;5023351;28;96681;-87
2021/11/16 00:47:45;;;;;;;98.07;43.17;;;;;;;12.16;51.15;102343.91;5024160;28;96980;-88
2021/11/16 00:50:15;;;;;;;91.78;41.03;;;;;;;12.20;51.01;102346.50;5022116;28;98209;-87
2021/11/16 00:52:46;;;;;;;90.28;42.05;;;;;;;12.22;50.71;102328.78;5041276;28;99505;-87
2021/11/16 00:55:14;;;;;;;90.50;41.72;;;;;;;12.21;50.80;102332.31;5040261;28;97116;-89
2021/11/16 00:57:42;;;;;;;89.47;41.05;;;;;;;12.30;50.00;102326.00;5014269;28;96715;-88
2021/11/16 01:00:11;;;;;;;98.32;42.85;;;;;;;11.84;51.59;102331.19;5023853;28;99008;-87
2021/11/16 01:02:41;;;;;;;89.18;40.72;;;;;;;11.93;51.43;102325.75;5022760;28;100385;-88
2021/11/16 01:05:12;;;;;;;87.63;41.10;;;;;;;11.96;51.43;102328.34;5010228;28;96851;-89
2021/11/16 01:07:39;;;;;;;87.00;42.05;;;;;;;11.74;51.89;102317.25;5016320;28;96591;-88
2021/11/16 01:10:07;;;;;;;89.25;41.25;;;;;;;12.00;51.30;102318.59;5023477;28;99883;-88
2021/11/16 01:12:34;;;;;;;87.07;40.83;;;;;;;12.02;51.64;102315.00;5003652;28;97962;-88
2021/11/16 01:15:02;;;;;;;94.70;42.65;;;;;;;11.95;51.53;102302.75;5034182;28;96621;-86
2021/11/16 01:17:30;;;;;;;90.93;42.08;;;;;;;12.10;50.92;102298.97;5039765;28;96402;-87
2021/11/16 01:19:58;;;;;;;90.20;42.70;;;;;;;12.07;51.30;102291.09;5025196;28;97036;-88
2021/11/16 01:22:25;;;;;;;92.72;41.17;;;;;;;11.99;50.89;102299.16;5038878;28;99524;-88
2021/11/16 01:24:53;;;;;;;89.90;41.83;;;;;;;11.86;51.29;102293.19;5026996;28;96902;-87
2021/11/16 01:27:21;;;;;;;88.05;41.90;;;;;;;11.65;51.96;102292.63;5041609;28;96589;-86
2021/11/16 01:29:50;;;;;;;93.93;41.88;;;;;;;11.38;53.34;102294.78;5021500;28;98394;-86
2021/11/16 01:32:30;;;;;;;88.07;41.50;;;;;;;11.27;53.75;102287.91;5033207;28;98536;-86
2021/11/16 01:34:59;;;;;;;98.97;44.40;;;;;;;11.40;53.79;102293.00;5028043;28;96593;-85
2021/11/16 01:37:26;;;;;;;89.75;42.63;;;;;;;11.47;53.29;102294.66;5029442;28;96654;-87
2021/11/16 01:39:55;;;;;;;91.45;43.40;;;;;;;11.50;53.11;102297.25;5014023;28;98920;-86
2021/11/16 01:42:25;;;;;;;91.72;43.33;;;;;;;11.53;52.92;102293.69;5029408;28;98079;-87
2021/11/16 01:44:56;;;;;;;88.53;43.85;;;;;;;11.75;52.49;102289.81;5026882;28;95980;-87
2021/11/16 01:47:22;;;;;;;91.93;43.70;;;;;;;11.82;52.25;102282.66;5028997;28;96628;-88
2021/11/16 01:49:50;;;;;;;97.40;44.33;;;;;;;11.93;52.01;102288.69;5010787;28;99098;-89
2021/11/16 01:52:18;;;;;;;99.90;45.25;;;;;;;11.83;52.20;102293.22;5018208;28;98673;-89
2021/11/16 01:54:45;;;;;;;93.75;42.60;;;;;;;11.56;52.77;102288.34;5002064;28;96694;-87
2021/11/16 01:57:12;;;;;;;97.20;44.17;;;;;;;11.48;53.25;102290.25;5017543;28;96857;-87
2021/11/16 01:59:40;;;;;;;88.25;42.90;;;;;;;11.56;52.55;102289.22;5018622;28;97877;-86
2021/11/16 02:02:07;;;;;;;96.55;44.30;;;;;;;11.53;52.95;102283.97;5018598;28;99265;-87
2021/11/16 02:04:34;;;;;;;88.65;43.22;;;;;;;11.59;52.69;102278.59;5017765;28;96664;-87
2021/11/16 02:07:01;;;;;;;96.32;43.45;;;;;;;11.72;52.07;102273.09;5014801;28;96896;-87
2021/11/16 02:09:31;;;;;;;96.13;43.08;;;;;;;11.70;52.44;102269.59;5018341;28;97284;-87
2021/11/16 02:11:57;;;;;;;91.38;42.65;;;;;;;11.06;54.66;102275.84;5015831;28;98040;-86
2021/11/16 02:14:24;;;;;;;92.05;43.78;;;;;;;10.67;55.33;102272.78;5020485;28;97157;-88
2021/11/16 02:16:53;;;;;;;92.82;44.40;;;;;;;10.66;55.50;102268.41;5012667;28;96725;-88
2021/11/16 02:19:22;;;;;;;97.05;43.63;;;;;;;10.93;55.29;102269.81;5011337;28;101791;-89
2021/11/16 02:21:51;;;;;;;94.88;43.40;;;;;;;11.41;53.80;102270.94;5014215;28;99320;-88
2021/11/16 02:24:20;;;;;;;100.47;45.22;;;;;;;11.73;52.49;102258.97;5007117;28;96661;-89
2021/11/16 02:26:48;;;;;;;93.75;43.08;;;;;;;11.71;52.39;102250.16;5017443;28;96817;-89
2021/11/16 02:29:16;;;;;;;89.38;41.60;;;;;;;11.64;52.42;102253.81;5013617;28;99136;-89
2021/11/16 02:31:45;;;;;;;93.95;44.40;;;;;;;11.64;52.68;102254.69;5009692;28;99242;-89
2021/11/16 02:34:14;;;;;;;88.88;42.97;;;;;;;11.28;53.68;102250.84;5018997;28;96808;-88
2021/11/16 02:36:42;;;;;;;83.90;42.40;;;;;;;11.34;53.92;102248.09;5019893;28;97338;-88
2021/11/16 02:39:12;;;;;;;85.32;42.03;;;;;;;11.38;53.67;102244.50;5016522;28;100141;-88
2021/11/16 02:41:41;;;;;;;94.45;44.17;;;;;;;11.13;54.12;102245.75;5018437;28;97980;-86
2021/11/16 02:44:09;;;;;;;85.13;42.42;;;;;;;11.29;53.16;102239.31;5024694;28;96884;-86
2021/11/16 02:46:38;;;;;;;98.22;45.70;;;;;;;11.23;54.76;102242.06;5032823;28;96878;-87
2021/11/16 02:49:05;;;;;;;89.13;43.50;;;;;;;11.28;53.74;102232.31;5000599;28;97830;-88
2021/11/16 02:51:36;;;;;;;89.38;44.15;;;;;;;11.25;53.88;102235.00;5018630;28;98732;-89
2021/11/16 02:54:13;;;;;;;90.60;42.08;;;;;;;11.31;53.40;102228.72;5011153;28;96920;-88
2021/11/16 02:56:40;;;;;;;91.28;42.63;;;;;;;11.61;52.74;102227.38;5003476;28;96819;-88
2021/11/16 02:59:07;;;;;;;95.78;44.05;;;;;;;11.64;52.96;102216.72;5020868;28;100612;-88
2021/11/16 03:01:35;;;;;;;95.22;44.47;;;;;;;11.46;52.85;102225.84;5014086;28;100423;-87
2021/11/16 03:04:02;;;;;;;92.85;42.70;;;;;;;11.13;53.98;102220.19;5015568;28;97819;-87
2021/11/16 03:06:29;;;;;;;94.28;44.25;;;;;;;11.01;54.70;102225.66;5024023;28;96981;-87
2021/11/16 03:08:56;;;;;;;92.22;43.83;;;;;;;11.18;54.29;102222.75;5017365;27;97943;-88
2021/11/16 03:11:24;;;;;;;93.35;43.75;;;;;;;11.41;53.81;102222.41;5027929;28;99256;-88
2021/11/16 03:13:51;;;;;;;90.65;43.25;;;;;;;11.62;53.19;102232.63;5040273;28;95903;-88
2021/11/16 03:16:20;;;;;;;94.35;45.33;;;;;;;11.65;53.19;102234.38;5031964;28;96369;-86
2021/11/16 03:18:48;;;;;;;86.85;42.45;;;;;;;11.69;52.79;102233.41;5006906;28;97034;-87
2021/11/16 03:21:16;;;;;;;79.82;41.00;;;;;;;11.47;53.41;102225.84;5014669;28;98735;-86
2021/11/16 03:23:45;;;;;;;83.03;42.05;;;;;;;11.61;53.20;102227.38;5010925;28;97181;-86
2021/11/16 03:26:13;;;;;;;89.25;42.40;;;;;;;11.80;52.37;102212.97;5011220;28;98116;-86
2021/11/16 03:28:46;;;;;;;87.40;40.75;;;;;;;11.91;51.34;102216.28;5011016;28;99727;-84
2021/11/16 03:31:20;;;;;;;81.10;39.85;;;;;;;11.84;52.09;102214.66;4989944;28;97556;-87
2021/11/16 03:33:48;;;;;;;84.13;40.55;;;;;;;11.67;52.47;102212.28;5024774;28;97015;-87
2021/11/16 03:36:16;;;;;;;92.00;41.58;;;;;;;11.75;52.48;102204.25;5022842;28;98705;-88
2021/11/16 03:38:44;;;;;;;85.20;41.22;;;;;;;11.13;54.17;102203.44;5023163;28;99189;-88
2021/11/16 03:41:12;;;;;;;82.43;39.83;;;;;;;11.13;53.82;102214.88;5019843;28;98193;-87
2021/11/16 03:43:41;;;;;;;87.10;42.05;;;;;;;11.45;53.63;102201.16;5003644;28;96987;-85
2021/11/16 03:46:09;;;;;;;88.38;42.88;;;;;;;11.49;53.38;102201.97;5006626;28;97172;-87
2021/11/16 03:48:36;;;;;;;85.10;40.58;;;;;;;11.43;52.83;102202.94;5020615;28;99258;-86
2021/11/16 03:51:03;;;;;;;90.53;42.28;;;;;;;10.83;54.97;102210.00;5003323;28;101375;-87
2021/11/16 03:53:31;;;;;;;83.40;40.97;;;;;;;11.02;55.23;102210.66;5002399;28;96807;-87
2021/11/16 03:55:57;;;;;;;93.20;43.10;;;;;;;11.39;53.89;102203.03;5015860;28;98689;-88
2021/11/16 03:58:26;;;;;;;89.95;42.92;;;;;;;11.45;53.80;102195.88;5003629;28;99489;-88
2021/11/16 04:00:59;;;;;;;92.18;42.42;;;;;;;11.58;52.62;102193.88;5020722;28;99974;-88
2021/11/16 04:03:29;;;;;;;95.80;42.25;;;;;;;11.63;52.97;102184.09;5033635;28;96646;-86
2021/11/16 04:05:57;;;;;;;85.07;40.85;;;;;;;11.65;53.26;102182.28;5025927;28;96590;-88
2021/11/16 04:08:24;;;;;;;94.78;42.92;;;;;;;11.47;53.85;102188.78;5010482;28;98917;-88
2021/11/16 04:10:54;;;;;;;87.30;42.05;;;;;;;11.43;53.35;102184.41;5017751;28;97089;-87
2021/11/16 04:13:21;;;;;;;91.35;44.65;;;;;;;11.57;53.24;102182.41;5012958;28;97839;-88
2021/11/16 04:15:49;;;;;;;91.43;41.50;;;;;;;11.58;53.31;102181.53;5011780;28;97217;-88
2021/11/16 04:18:20;;;;;;;84.18;41.35;;;;;;;11.54;52.59;102182.50;5016869;28;99576;-89
2021/11/16 04:20:49;;;;;;;88.38;41.70;;;;;;;11.28;53.79;102179.38;5011807;28;101474;-89
2021/11/16 04:23:18;;;;;;;91.03;42.38;;;;;;;11.41;54.11;102183.59;5021428;28;96768;-88
2021/11/16 04:25:47;;;;;;;88.55;42.58;;;;;;;11.73;52.81;102174.22;5016730;28;97162;-89
2021/11/16 04:28:15;;;;;;;94.13;41.00;;;;;;;11.36;53.95;102174.81;5008271;28;98936;-89
2021/11/16 04:30:42;;;;;;;93.80;43.55;;;;;;;11.27;54.28;102172.34;5020416;28;99288;-89
2021/11/16 04:33:11;;;;;;;92.30;43.22;;;;;;;11.56;53.80;102159.50;5011188;28;96663;-90
2021/11/16 04:35:39;;;;;;;87.47;42.65;;;;;;;11.45;54.03;102161.44;5023003;28;96844;-89
2021/11/16 04:38:08;;;;;;;90.20;43.20;;;;;;;11.57;53.50;102163.88;5011041;28;100044;-89
2021/11/16 04:40:39;;;;;;;93.63;43.75;;;;;;;11.40;53.85;102165.97;5023085;28;100788;-89
2021/11/16 04:43:09;;;;;;;91.88;43.00;;;;;;;11.31;54.10;102159.91;5024353;28;96669;-89
2021/11/16 04:45:38;;;;;;;90.88;41.67;;;;;;;11.56;53.51;102155.97;5028173;28;96914;-88
2021/11/16 04:48:10;;;;;;;96.22;43.92;;;;;;;11.77;53.16;102160.03;5039716;28;100147;-88
2021/11/16 04:50:52;;;;;;;90.78;42.15;;;;;;;11.76;53.03;102150.34;5024890;28;99248;-88
2021/11/16 04:53:38;;;;;;;90.18;42.00;;;;;;;11.66;53.01;102140.81;5033444;28;96548;-87
2021/11/16 05:04:21;;;;;;;93.80;43.17;;;;;;;11.57;53.43;102147.13;5041153;28;96664;-86
2021/11/16 05:06:54;;;;;;;97.20;42.72;;;;;;;11.68;52.94;102154.91;5029007;28;96456;-87
2021/11/16 05:09:21;;;;;;;85.93;40.28;;;;;;;11.59;53.17;102155.94;5030703;28;98968;-86
2021/11/16 05:11:47;;;;;;;92.30;41.63;;;;;;;11.47;53.65;102161.44;5021989;28;99275;-86
2021/11/16 05:14:15;;;;;;;90.97;42.72;;;;;;;11.28;54.33;102160.88;5026952;28;96855;-86
2021/11/16 05:16:42;;;;;;;93.55;42.80;;;;;;;11.49;54.08;102155.19;5036633;28;96821;-88
2021/11/16 05:19:08;;;;;;;94.38;42.88;;;;;;;11.62;53.72;102160.31;5033162;28;96622;-88
2021/11/16 05:21:35;;;;;;;102.57;44.50;;;;;;;11.53;53.61;102162.19;5028415;28;100665;-88
2021/11/16 05:24:08;;;;;;;95.65;42.92;;;;;;;11.32;53.98;102159.03;5023630;28;97092;-86
2021/11/16 05:26:35;;;;;;;98.13;45.75;;;;;;;11.43;53.94;102157.06;5022691;28;97124;-87
2021/11/16 05:29:02;;;;;;;99.85;43.92;;;;;;;11.19;54.37;102159.22;5010699;28;98332;-87
2021/11/16 05:31:29;;;;;;;93.13;44.03;;;;;;;11.45;53.72;102163.22;5021873;28;98015;-88
2021/11/16 05:33:58;;;;;;;95.53;44.53;;;;;;;11.54;53.71;102153.38;5021305;28;97170;-88
2021/11/16 05:36:25;;;;;;;94.68;43.10;;;;;;;11.38;53.81;102165.09;5014248;28;96779;-87
2021/11/16 05:38:53;;;;;;;103.50;45.03;;;;;;;11.43;54.15;102165.88;5014072;28;98938;-87
2021/11/16 05:41:22;;;;;;;93.93;44.13;;;;;;;11.28;54.53;102160.88;5024903;28;99521;-88
2021/11/16 05:43:52;;;;;;;102.97;43.97;;;;;;;11.57;53.30;102168.31;5027707;28;96580;-88
2021/11/16 05:46:22;;;;;;;93.95;42.80;;;;;;;11.26;54.15;102167.94;5025824;28;96832;-87
2021/11/16 05:48:50;;;;;;;98.25;41.50;;;;;;;11.02;55.52;102163.91;5018754;28;99245;-87
2021/11/16 05:51:19;;;;;;;103.43;44.92;;;;;;;10.96;55.09;102176.34;5034839;28;100243;-87
2021/11/16 05:53:51;;;;;;;94.65;42.00;;;;;;;10.88;55.89;102170.28;5031130;28;96619;-88
2021/11/16 05:56:20;;;;;;;95.28;43.88;;;;;;;10.91;55.84;102172.88;5034175;28;96635;-87
2021/11/16 05:58:52;;;;;;;97.75;44.67;;;;;;;11.02;55.70;102165.69;5032731;28;99361;-87
2021/11/16 06:01:19;;;;;;;101.47;45.40;;;;;;;11.07;55.41;102158.53;5030790;28;99047;-88
2021/11/16 06:03:50;;;;;;;99.00;43.95;;;;;;;10.84;56.06;102165.94;5018618;28;97342;-90
2021/11/16 06:06:19;;;;;;;101.90;43.33;;;;;;;10.93;56.02;102166.69;5014696;28;96766;-89
2021/11/16 06:08:48;;;;;;;99.65;43.55;;;;;;;11.01;55.91;102158.63;5006994;28;100647;-89
2021/11/16 06:11:17;;;;;;;103.00;45.40;;;;;;;11.12;56.02;102172.56;5022371;28;98404;-89
2021/11/16 06:13:43;;;;;;;99.65;44.10;;;;;;;10.79;55.82;102172.16;5021754;28;96776;-88
2021/11/16 06:16:12;;;;;;;108.65;46.25;;;;;;;11.04;56.33;102163.88;4999655;28;96893;-89
2021/11/16 06:18:41;;;;;;;108.78;47.38;;;;;;;11.21;55.11;102177.72;5003650;28;97906;-89
2021/11/16 06:21:11;;;;;;;100.55;45.42;;;;;;;10.91;55.39;102180.81;4994369;28;98829;-93
2021/11/16 06:23:39;;;;;;;110.38;45.80;;;;;;;11.00;56.32;102185.97;5028018;28;96531;-88
2021/11/16 06:26:06;;;;;;;100.10;44.65;;;;;;;11.18;55.35;102183.94;5015414;28;96908;-89
2021/11/16 06:28:36;;;;;;;108.63;45.83;;;;;;;10.90;56.55;102185.22;5012387;28;98194;-85
2021/11/16 06:31:03;;;;;;;106.03;46.75;;;;;;;11.09;55.91;102180.56;5006223;28;100746;-86
2021/11/16 06:33:31;;;;;;;99.07;43.85;;;;;;;11.09;55.73;102181.41;5015271;28;96799;-86
2021/11/16 06:35:58;;;;;;;98.15;43.20;;;;;;;11.12;56.02;102197.25;5020379;28;96907;-88
2021/11/16 06:38:30;;;;;;;87.93;38.80;;;;;;;10.94;55.58;102202.81;5016695;28;97740;-91
2021/11/16 06:40:57;;;;;;;82.68;38.15;;;;;;;10.87;55.40;102194.97;5020505;28;100176;-91
2021/11/16 06:43:27;;;;;;;82.93;38.33;;;;;;;10.77;55.39;102200.38;5008986;28;96992;-90
2021/11/16 06:45:57;;;;;;;78.07;34.63;;;;;;;10.59;56.08;102208.56;5000206;28;97723;-88
2021/11/16 06:48:24;;;;;;;80.57;37.13;;;;;;;10.86;56.08;102199.41;5008748;28;98864;-89
2021/11/16 06:50:55;;;;;;;78.43;37.15;;;;;;;10.91;55.59;102201.97;5003144;28;100163;-89
2021/11/16 06:53:24;;;;;;;79.25;35.97;;;;;;;11.00;55.17;102204.50;5013679;28;96799;-84
2021/11/16 06:55:51;;;;;;;84.53;38.65;;;;;;;10.91;55.83;102213.41;5004865;28;96945;-85
2021/11/16 06:58:18;;;;;;;82.15;38.42;;;;;;;10.91;55.70;102209.91;5020924;28;97827;-91
2021/11/16 07:00:47;;;;;;;82.93;38.50;;;;;;;11.05;55.58;102206.19;5007652;28;98214;-90
2021/11/16 07:03:17;;;;;;;85.43;38.42;;;;;;;10.79;55.58;102206.53;5023846;28;96700;-86
2021/11/16 07:05:48;;;;;;;85.38;37.67;;;;;;;11.26;55.17;102204.13;5017513;28;97098;-89
2021/11/16 07:08:51;;;;;;;83.32;39.42;;;;;;;11.06;55.71;102213.22;5011039;28;100296;-85
2021/11/16 07:11:21;;;;;;;84.63;38.92;;;;;;;11.15;55.39;102209.56;5009906;28;100461;-84
2021/11/16 07:14:01;;;;;;;85.40;37.08;;;;;;;11.31;54.90;102211.06;5004277;28;98404;-86
2021/11/16 07:16:31;;;;;;;84.95;37.38;;;;;;;11.23;55.27;102212.09;5003138;28;98274;-84
2021/11/16 07:19:00;;;;;;;88.65;38.90;;;;;;;10.87;56.44;102213.50;5006132;28;98482;-85
2021/11/16 07:21:28;;;;;;;85.32;39.38;;;;;;;10.89;56.31;102220.53;5009629;28;98966;-85
2021/11/16 07:24:09;;;;;;;88.80;37.50;;;;;;;10.68;57.03;102212.88;5010285;28;96944;-85
2021/11/16 07:26:39;;;;;;;89.65;38.47;;;;;;;10.75;57.27;102220.69;5012272;28;98023;-84
2021/11/16 07:29:09;;;;;;;81.43;37.53;;;;;;;10.69;57.94;102218.16;5011558;28;99501;-82
2021/11/16 07:31:37;;;;;;;86.40;37.33;;;;;;;10.62;57.08;102212.94;5009799;28;99244;-83
2021/11/16 07:34:17;;;;;;;87.88;38.72;;;;;;;10.75;57.71;102218.06;5010581;28;97577;-84
2021/11/16 07:36:55;;;;;;;88.60;38.15;;;;;;;10.86;56.80;102207.34;5005155;28;98103;-85
2021/11/16 07:39:24;;;;;;;89.18;37.50;;;;;;;10.66;58.06;102207.59;5011017;28;100205;-84
2021/11/16 07:41:51;;;;;;;88.63;38.05;;;;;;;10.21;59.32;102206.38;5008906;28;100221;-83
2021/11/16 07:44:18;;;;;;;84.68;37.88;;;;;;;11.00;57.56;102204.50;5007553;28;97359;-84
2021/11/16 07:46:54;;;;;;;93.68;39.90;;;;;;;11.26;56.24;102199.69;5011129;28;97475;-87
2021/11/16 07:49:22;;;;;;;88.63;38.85;;;;;;;11.30;56.03;102187.28;5021994;28;98421;-86
2021/11/16 07:51:50;;;;;;;91.15;39.08;;;;;;;11.30;56.34;102185.50;5015686;28;100368;-85
2021/11/16 07:54:25;;;;;;;92.38;39.55;;;;;;;11.43;55.96;102187.06;5016250;28;96816;-86
2021/11/16 07:56:53;;;;;;;95.40;39.50;;;;;;;11.54;55.78;102190.44;5022764;28;96727;-87
2021/11/16 07:59:24;;;;;;;91.10;39.45;;;;;;;11.56;55.67;102178.03;5025667;28;99360;-87
2021/11/16 08:01:58;;;;;;;88.03;39.10;;;;;;;11.50;55.48;102172.84;5012073;28;99591;-87
2021/11/16 08:07:29;;;;;;;91.90;39.17;;;;;;;12.08;53.86;102169.16;5020316;28;97133;-86
2021/11/16 08:09:57;;;;;;;89.40;39.58;;;;;;;12.28;53.05;102169.66;5010086;28;99153;-85
2021/11/16 08:12:30;;;;;;;93.00;38.90;;;;;;;12.52;52.45;102160.34;5007963;28;99733;-87
2021/11/16 08:15:02;;;;;;;87.97;39.42;;;;;;;12.47;52.33;102159.53;5014596;28;96831;-88
2021/11/16 08:17:31;;;;;;;94.93;39.80;;;;;;;12.35;52.68;102152.72;5010917;28;98099;-84
2021/11/16 08:20:01;;;;;;;95.40;40.28;;;;;;;12.66;52.05;102157.41;5025260;28;99691;-86
2021/11/16 08:27:55;;;;;;;89.90;39.15;;;;;;;12.72;51.77;102159.91;5049232;27;97153;-83
2021/11/16 08:30:26;;;;;;;85.90;37.80;;;;;;;12.72;51.27;102144.88;5053038;27;98740;-85
2021/11/16 08:32:57;;;;;;;99.10;40.83;;;;;;;12.67;51.61;102156.47;5051283;27;98006;-84
2021/11/16 08:35:25;;;;;;;90.95;38.58;;;;;;;12.71;52.03;102148.44;5050624;27;96357;-85
2021/11/16 08:38:01;;;;;;;81.85;38.78;;;;;;;12.88;51.27;102144.50;5047232;27;96867;-83
2021/11/16 08:44:08;;;;;;;86.50;38.95;;;;;;;12.86;51.51;102146.34;5044575;27;98925;-89
2021/11/16 08:46:39;;;;;;;84.35;38.50;;;;;;;13.03;50.94;102137.06;5027468;28;96525;-89
2021/11/16 08:49:30;;;;;;;88.65;39.50;;;;;;;13.03;50.98;102123.81;5048460;27;96583;-89
2021/11/16 08:57:00;;;;;;;86.65;38.13;;;;;;;13.37;49.58;102123.88;5051034;27;98059;-85
2021/11/16 08:59:40;;;;;;;;;;;;;;;;;;;;;
2021/11/16 09:02:20;;;;;;;89.47;39.60;;;;;;;13.27;50.60;102121.47;5032286;27;127969;-85
2021/11/16 09:04:50;;;;;;;92.63;40.63;;;;;;;13.21;50.78;102122.50;5038679;28;100627;-86
2021/11/16 09:07:28;;;;;;;92.93;41.63;;;;;;;13.52;50.20;102134.09;5034584;28;96943;-85
2021/11/16 09:10:03;;;;;;;95.68;41.15;;;;;;;13.49;50.25;102133.31;5032685;28;97025;-89
2021/11/16 09:12:44;;;;;;;93.85;40.40;;;;;;;13.85;49.03;102128.81;5041447;28;99474;-87
2021/11/16 09:15:35;;;;;;;93.93;40.03;;;;;;;13.76;49.77;102121.97;5042514;27;98224;-87
2021/11/16 09:18:15;;;;;;;101.00;41.13;;;;;;;13.76;48.83;102127.28;5037857;28;96733;-88
2021/11/16 09:20:44;;;;;;;93.07;39.80;;;;;;;13.50;49.67;102125.31;5024747;28;96804;-85
2021/11/16 09:23:21;;;;;;;92.00;41.00;;;;;;;13.55;50.07;102128.72;5040241;28;99913;-83
2021/11/16 09:25:51;;;;;;;87.10;39.58;;;;;;;13.85;49.95;102118.19;5034485;28;99410;-84
2021/11/16 09:28:34;;;;;;;94.22;40.42;;;;;;;13.82;49.40;102132.44;5060172;28;95967;-85
2021/11/16 09:31:16;;;;;;;92.28;39.97;;;;;;;13.64;49.17;102119.66;5076852;22;97137;-85
2021/11/16 09:33:43;;;;;;;90.53;39.90;;;;;;;13.66;49.38;102117.81;5026902;28;97220;-85
2021/11/16 09:36:13;;;;;;;90.40;39.13;;;;;;;13.42;50.29;102105.19;5024094;28;99966;-85
2021/11/16 09:38:44;;;;;;;90.72;39.05;;;;;;;13.70;49.61;102105.34;5012591;28;96834;-85
2021/11/16 09:41:14;;;;;;;87.85;39.75;;;;;;;13.42;50.59;102106.06;5018376;28;96872;-87
2021/11/16 09:43:41;;;;;;;92.40;39.78;;;;;;;13.39;49.87;102092.84;5021667;28;100823;-86
2021/11/16 09:46:28;;;;;;;91.43;38.92;;;;;;;13.34;50.55;102091.22;5022505;28;98010;-86
2021/11/16 09:49:00;;;;;;;85.32;39.03;;;;;;;13.49;50.52;102096.16;5021408;28;96842;-87
2021/11/16 09:51:30;;;;;;;85.05;38.83;;;;;;;13.71;49.79;102094.66;5016821;28;96712;-84
2021/11/16 09:54:05;;;;;;;85.97;38.28;;;;;;;13.60;49.67;102094.06;5022993;28;102565;-86
2021/11/16 09:56:33;;;;;;;88.57;40.83;;;;;;;13.48;50.34;102089.09;5024432;28;99339;-85
2021/11/16 09:59:06;;;;;;;90.70;39.40;;;;;;;13.61;50.28;102100.25;5026660;28;96873;-85
2021/11/16 10:01:38;;;;;;;96.90;41.45;;;;;;;13.72;49.87;102090.22;5027523;28;97136;-88
2021/11/16 10:04:16;;;;;;;91.95;39.28;;;;;;;13.71;49.44;102091.13;5023182;28;98140;-87
2021/11/16 10:06:43;;;;;;;98.45;41.35;;;;;;;13.68;50.06;102091.22;5020592;28;98500;-83
2021/11/16 10:09:11;;;;;;;97.78;40.70;;;;;;;13.69;49.76;102092.97;5023988;28;96859;-79
2021/11/16 10:11:43;;;;;;;89.93;39.08;;;;;;;13.98;49.43;102086.84;5032697;28;96597;-84
2021/11/16 10:14:13;;;;;;;98.25;40.50;;;;;;;13.47;50.04;102082.91;5025978;28;99719;-83
2021/11/16 10:16:42;;;;;;;94.80;39.67;;;;;;;13.62;50.13;102086.06;5031362;28;100981;-85
2021/11/16 10:19:27;;;;;;;88.10;38.13;;;;;;;13.57;50.01;102083.53;5029034;28;96432;-85
2021/11/16 10:21:53;;;;;;;86.97;37.65;;;;;;;13.62;50.11;102086.94;5017751;28;96781;-83
2021/11/16 10:24:30;;;;;;;86.38;38.75;;;;;;;13.52;50.38;102077.50;5012359;28;100860;-83
2021/11/16 10:27:00;;;;;;;83.50;38.42;;;;;;;13.91;49.58;102071.03;5002143;28;98796;-82
2021/11/16 10:29:44;;;;;;;88.57;39.63;;;;;;;13.77;49.34;102069.72;5012789;28;96717;-85
2021/11/16 10:32:28;;;;;;;81.63;37.75;;;;;;;13.89;49.50;102072.91;5012394;28;96879;-86
2021/11/16 10:35:07;;;;;;;85.07;39.00;;;;;;;14.04;48.85;102065.41;5011044;28;100115;-85
2021/11/16 10:37:45;;;;;;;77.50;36.67;;;;;;;13.77;49.31;102062.63;5014650;28;98181;-85
2021/11/16 10:40:13;;;;;;;89.78;38.53;;;;;;;13.83;49.60;102064.22;5017631;28;96758;-83
2021/11/16 10:42:43;;;;;;;89.93;36.90;;;;;;;14.01;49.29;102057.50;5012676;28;96867;-84
2021/11/16 10:45:14;;;;;;;89.25;40.40;;;;;;;14.28;48.58;102052.25;5011106;28;100189;-83
2021/11/16 10:47:45;;;;;;;87.28;38.22;;;;;;;14.02;48.81;102043.31;5014962;28;100794;-84
2021/11/16 10:50:24;;;;;;;85.38;38.08;;;;;;;14.05;49.07;102040.53;5016268;28;97262;-83
2021/11/16 10:53:09;;;;;;;87.72;38.42;;;;;;;14.42;48.24;102041.25;5010965;28;96751;-84
2021/11/16 10:55:42;;;;;;;85.22;39.40;;;;;;;14.45;47.92;102048.22;5014883;28;99292;-82
2021/11/16 10:58:12;;;;;;;82.40;37.90;;;;;;;14.29;48.74;102035.41;5018137;28;98580;-85
2021/11/16 11:00:44;;;;;;;80.50;38.13;;;;;;;14.28;48.09;102030.13;5016679;28;97347;-85
2021/11/16 11:03:22;;;;;;;82.40;36.78;;;;;;;14.57;47.85;102037.22;5012619;28;96706;-83
2021/11/16 11:05:53;;;;;;;77.03;37.63;;;;;;;14.68;47.62;102019.13;5025518;28;99267;-85
2021/11/16 11:08:34;;;;;;;79.97;36.35;;;;;;;14.45;47.37;102026.97;5024607;28;100081;-84
2021/11/16 11:13:55;;;;;;;76.32;36.20;;;;;;;14.45;47.38;102030.50;5012095;28;97350;-84
2021/11/16 11:16:25;;;;;;;85.53;36.88;;;;;;;14.36;47.66;102021.00;5016975;28;100081;-84
2021/11/16 11:18:54;;;;;;;84.38;37.38;;;;;;;14.59;47.32;102022.06;5015801;28;99329;-85
2021/11/16 11:21:28;;;;;;;77.38;36.60;;;;;;;14.70;46.97;102017.31;4998444;28;96835;-84
2021/11/16 11:23:57;;;;;;;75.75;35.85;;;;;;;14.77;46.97;102013.50;5015843;28;96804;-84
2021/11/16 11:26:37;;;;;;;82.50;36.83;;;;;;;14.84;46.91;102012.38;5009490;28;99445;-84
2021/11/16 11:29:18;;;;;;;89.22;37.55;;;;;;;14.73;47.09;102020.72;5014809;28;99441;-84
2021/11/16 11:31:48;;;;;;;79.10;36.40;;;;;;;14.88;47.12;102016.69;5014706;28;96895;-83
2021/11/16 11:34:31;;;;;;;87.45;39.92;;;;;;;14.92;46.67;102006.78;5030943;28;96587;-82
2021/11/16 11:37:07;;;;;;;81.85;37.00;;;;;;;14.91;46.32;102010.38;5020534;28;96872;-83
2021/11/16 11:43:00;;;;;;;89.90;38.15;;;;;;;14.66;47.23;101994.34;4966624;28;97147;-84
2021/11/16 11:45:32;;;;;;;81.53;36.83;;;;;;;14.58;47.61;101993.72;5017610;28;96838;-83
2021/11/16 11:48:08;;;;;;;83.55;37.17;;;;;;;14.61;47.65;101991.00;5013152;28;100338;-83
2021/11/16 11:50:41;;;;;;;83.82;36.30;;;;;;;14.58;47.87;101981.31;5014942;28;101207;-84
2021/11/16 11:53:11;;;;;;;84.03;38.58;;;;;;;14.78;46.91;101983.31;5016378;28;96918;-86
2021/11/16 11:55:41;;;;;;;86.65;38.83;;;;;;;14.56;47.38;101985.81;5019096;28;96772;-84